Terminal Aerodrome Forecast
Issued by NWS

Home | Current Version | Previous Version | Text Only | Print | Product List | Glossary On
Versions: 1 2 3 4 5 6 7 8 9 10 11 12 13 14 15
645
FTUS44 KCRP 290533
TAFLRD
TAF
KLRD 290533Z 2906/3006 06005KT P6SM SKC
     FM291000 03004KT P6SM SCT035 BKN150
     FM292000 02005KT P6SM VCTS BKN040CB OVC150
     FM300300 04010KT P6SM BKN025 OVC250=

USA.gov is the U.S. government's official web portal to all federal, state and local government web resources and services.